Time;durP1;ratioP1;P1;durP2;ratioP2;P2;SDS_P1;SDS_P2;PMS_P1;PMS_P2;Temp;Humidity;BMP_temperature;BMP_pressure;BME280_temperature;BME280_humidity;BME280_pressure;Samples;Min_cycle;Max_cycle;Signal;HPM_P1;HPM_P2
2021/06/17 00:01:59;;;;;;;1999.90;999.90;;;26.30;99.90;;;;;;5058050;28;20898;-82
2021/06/17 00:04:24;;;;;;;1999.90;999.90;;;26.20;99.90;;;;;;5057989;28;20410;-83
2021/06/17 00:06:50;;;;;;;1999.90;999.90;;;26.20;99.90;;;;;;5058250;28;20425;-81
2021/06/17 00:09:17;;;;;;;1999.90;999.90;;;26.20;99.90;;;;;;5058076;28;20188;-81
2021/06/17 00:11:42;;;;;;;1999.90;999.90;;;26.10;99.90;;;;;;5058016;28;20176;-81
2021/06/17 00:14:08;;;;;;;1999.90;999.90;;;26.10;99.90;;;;;;5057782;28;20423;-82
2021/06/17 00:16:34;;;;;;;1999.90;999.90;;;26.10;99.90;;;;;;5115492;22;20319;-85
2021/06/17 00:18:59;;;;;;;1999.90;999.90;;;26.00;99.90;;;;;;5017542;28;20256;-85
2021/06/17 00:21:25;;;;;;;1999.90;999.90;;;26.00;99.90;;;;;;5017330;28;20173;-85
2021/06/17 00:23:52;;;;;;;1999.90;999.90;;;25.90;99.90;;;;;;5035014;28;20289;-85
2021/06/17 00:26:17;;;;;;;1999.90;999.90;;;25.90;99.90;;;;;;5035377;28;20176;-85
2021/06/17 00:28:43;;;;;;;1999.90;999.90;;;25.90;99.90;;;;;;5017244;28;20493;-85
2021/06/17 00:31:09;;;;;;;1999.90;999.90;;;25.90;99.90;;;;;;5034934;28;20160;-85
2021/06/17 00:33:37;;;;;;;1999.90;999.90;;;25.90;99.90;;;;;;5017079;28;20268;-85
2021/06/17 00:36:03;;;;;;;1999.90;999.90;;;25.80;99.90;;;;;;5035393;28;20222;-85
2021/06/17 00:38:29;;;;;;;1999.90;999.90;;;25.90;99.90;;;;;;5034837;28;20432;-85
2021/06/17 00:40:55;;;;;;;1999.90;999.90;;;25.80;99.90;;;;;;5035412;28;20814;-85
2021/06/17 00:43:21;;;;;;;1999.90;999.90;;;25.80;99.90;;;;;;5035319;28;20469;-85
2021/06/17 00:45:47;;;;;;;1999.90;999.90;;;25.70;99.90;;;;;;5017188;28;20407;-85
2021/06/17 00:48:15;;;;;;;1999.90;999.90;;;25.60;99.90;;;;;;5034634;28;20490;-86
2021/06/17 00:50:58;;;;;;;1999.90;999.90;;;25.60;99.90;;;;;;5034981;28;20414;-86
2021/06/17 00:53:30;;;;;;;1999.90;999.90;;;25.60;99.90;;;;;;5017628;28;20411;-85
2021/06/17 00:55:56;;;;;;;1999.90;999.90;;;25.50;99.90;;;;;;5016979;28;20411;-85
2021/06/17 00:58:24;;;;;;;1999.90;999.90;;;25.50;99.90;;;;;;5016870;28;20447;-85
2021/06/17 01:00:50;;;;;;;1999.90;999.90;;;25.50;99.90;;;;;;5000476;28;20415;-85
2021/06/17 01:03:16;;;;;;;1999.90;999.90;;;25.50;99.90;;;;;;5015698;28;20478;-86
2021/06/17 01:05:42;;;;;;;1999.90;999.90;;;25.40;99.90;;;;;;5034609;28;20903;-85
2021/06/17 01:08:18;;;;;;;1999.90;999.90;;;25.40;99.90;;;;;;5016399;28;20556;-85
2021/06/17 01:11:20;;;;;;;1999.90;999.90;;;25.40;99.90;;;;;;5016536;28;20580;-85
2021/06/17 01:13:48;;;;;;;1999.90;999.90;;;25.40;99.90;;;;;;5034745;28;20391;-86
2021/06/17 01:16:33;;;;;;;1999.90;999.90;;;25.40;99.90;;;;;;5034189;28;20461;-86
2021/06/17 01:19:31;;;;;;;1999.90;999.90;;;25.40;99.90;;;;;;5016386;28;20449;-85
2021/06/17 01:22:19;;;;;;;1999.90;999.90;;;25.40;99.90;;;;;;5011085;28;20407;-85
2021/06/17 01:24:50;;;;;;;1999.90;999.90;;;25.30;99.90;;;;;;5034144;28;20390;-86
2021/06/17 01:27:34;;;;;;;1999.90;999.90;;;25.30;99.90;;;;;;5016340;28;20823;-86
2021/06/17 01:30:11;;;;;;;1999.90;999.90;;;25.30;99.90;;;;;;5016209;28;20429;-86
2021/06/17 01:32:43;;;;;;;1999.90;999.90;;;25.20;99.90;;;;;;5017275;28;20497;-86
2021/06/17 01:35:11;;;;;;;1999.90;999.90;;;25.20;99.90;;;;;;5034420;28;20726;-86
2021/06/17 01:37:38;;;;;;;1999.90;999.90;;;25.20;99.90;;;;;;5034336;28;20414;-86
2021/06/17 01:40:06;;;;;;;1999.90;999.90;;;25.20;99.90;;;;;;5034047;28;20977;-86
2021/06/17 01:42:35;;;;;;;1999.90;999.90;;;25.20;99.90;;;;;;5034026;28;20454;-86
2021/06/17 01:45:01;;;;;;;1999.90;999.90;;;25.20;99.90;;;;;;5033624;28;20982;-86
2021/06/17 01:47:28;;;;;;;1999.90;999.90;;;25.10;99.90;;;;;;5033971;28;20415;-86
2021/06/17 01:49:55;;;;;;;1999.90;999.90;;;25.00;99.90;;;;;;5033823;28;20421;-86
2021/06/17 01:52:23;;;;;;;1999.90;999.90;;;25.00;99.90;;;;;;5034415;28;20434;-86
2021/06/17 01:54:50;;;;;;;1999.90;999.90;;;24.90;99.90;;;;;;5016433;28;20413;-85
2021/06/17 01:57:18;;;;;;;1999.90;999.90;;;24.90;99.90;;;;;;5033795;28;20419;-85
2021/06/17 01:59:47;;;;;;;1999.90;999.90;;;24.90;99.90;;;;;;5016040;28;20512;-86
2021/06/17 02:02:14;;;;;;;1999.90;999.90;;;24.90;99.90;;;;;;5033602;28;20410;-86
2021/06/17 02:04:41;;;;;;;1999.90;999.90;;;24.80;99.90;;;;;;5015784;28;20417;-86
2021/06/17 02:07:10;;;;;;;1999.90;999.90;;;24.80;99.90;;;;;;5033638;28;20825;-86
2021/06/17 02:09:37;;;;;;;1999.90;999.90;;;24.80;99.90;;;;;;5033160;28;20418;-86
2021/06/17 02:12:03;;;;;;;1999.90;999.90;;;24.80;99.90;;;;;;5033716;28;20417;-86
2021/06/17 02:14:30;;;;;;;1999.90;999.90;;;24.80;99.90;;;;;;5033229;28;20410;-86
2021/06/17 02:16:58;;;;;;;1999.90;999.90;;;24.80;99.90;;;;;;5015689;28;20815;-86
2021/06/17 02:19:26;;;;;;;1999.90;999.90;;;24.70;99.90;;;;;;5033442;28;20439;-86
2021/06/17 02:21:55;;;;;;;1999.90;999.90;;;24.70;99.90;;;;;;5033486;28;20432;-86
2021/06/17 02:24:23;;;;;;;1999.90;999.90;;;24.70;99.90;;;;;;5033124;28;20447;-86
2021/06/17 02:26:52;;;;;;;1999.90;999.90;;;24.70;99.90;;;;;;5033181;28;20418;-86
2021/06/17 02:29:18;;;;;;;1999.90;999.90;;;24.70;99.90;;;;;;5033030;28;20427;-86
2021/06/17 02:31:48;;;;;;;1999.90;999.90;;;24.60;99.90;;;;;;5033231;28;20400;-86
2021/06/17 02:34:14;;;;;;;1999.90;999.90;;;24.60;99.90;;;;;;5033044;28;20858;-86
2021/06/17 02:36:46;;;;;;;1999.90;999.90;;;24.60;99.90;;;;;;5032968;28;20400;-86
2021/06/17 02:39:14;;;;;;;1999.90;999.90;;;24.70;99.90;;;;;;5033002;28;20512;-86
2021/06/17 02:41:45;;;;;;;1999.90;999.90;;;24.70;99.90;;;;;;5033349;28;20416;-86
2021/06/17 02:44:12;;;;;;;1999.90;999.90;;;24.60;99.90;;;;;;5033051;28;20430;-86
2021/06/17 02:46:37;;;;;;;1999.90;999.90;;;24.60;99.90;;;;;;5033176;28;20406;-86
2021/06/17 02:49:07;;;;;;;1999.90;999.90;;;24.60;99.90;;;;;;5032990;28;20534;-86
2021/06/17 02:51:34;;;;;;;1999.90;999.90;;;24.60;99.90;;;;;;5032854;28;20205;-85
2021/06/17 02:54:00;;;;;;;1999.90;999.90;;;24.60;99.90;;;;;;5033028;28;20746;-85
2021/06/17 02:56:40;;;;;;;1999.90;999.90;;;24.60;99.90;;;;;;5032959;28;20403;-86
2021/06/17 02:59:37;;;;;;;1999.90;999.90;;;24.60;99.90;;;;;;5032805;28;20424;-85
2021/06/17 03:02:18;;;;;;;1999.90;999.90;;;24.50;99.90;;;;;;5033104;28;20388;-85
2021/06/17 03:04:48;;;;;;;1999.90;999.90;;;24.60;99.90;;;;;;5032830;28;20377;-85
2021/06/17 03:07:25;;;;;;;1999.90;999.90;;;24.60;99.90;;;;;;5032694;28;20901;-86
2021/06/17 03:09:58;;;;;;;1999.90;999.90;;;24.50;99.90;;;;;;5032933;28;20424;-85
2021/06/17 03:12:26;;;;;;;1999.90;999.90;;;24.40;99.90;;;;;;5032900;28;20438;-86
2021/06/17 03:14:55;;;;;;;1999.90;999.90;;;24.40;99.90;;;;;;5032494;28;20504;-86
2021/06/17 03:17:23;;;;;;;1999.90;999.90;;;24.40;99.90;;;;;;5032443;28;20834;-86
2021/06/17 03:19:52;;;;;;;1999.90;999.90;;;24.40;99.90;;;;;;5032727;28;20425;-85
2021/06/17 03:22:18;;;;;;;1999.90;999.90;;;24.30;99.90;;;;;;5032987;28;20407;-86
2021/06/17 03:24:48;;;;;;;1999.90;999.90;;;24.40;99.90;;;;;;5032813;28;20412;-86
2021/06/17 03:27:15;;;;;;;1999.90;999.90;;;24.40;99.90;;;;;;5035202;28;20493;-86
2021/06/17 03:29:46;;;;;;;1999.90;999.90;;;24.40;99.90;;;;;;5018324;28;20420;-86
2021/06/17 03:32:13;;;;;;;1999.90;999.90;;;24.30;99.90;;;;;;5036441;28;20525;-86
2021/06/17 03:34:41;;;;;;;1999.90;999.90;;;24.40;99.90;;;;;;5036289;28;20403;-86
2021/06/17 03:37:08;;;;;;;1999.90;999.90;;;24.30;99.90;;;;;;5036189;28;20407;-86
2021/06/17 03:39:35;;;;;;;1999.90;999.90;;;24.30;99.90;;;;;;5036073;28;20426;-86
2021/06/17 03:42:02;;;;;;;1999.90;999.90;;;24.30;99.90;;;;;;5018163;28;20510;-85
2021/06/17 03:44:30;;;;;;;1999.90;999.90;;;24.30;99.90;;;;;;5035849;28;20903;-85
2021/06/17 03:46:56;;;;;;;1999.90;999.90;;;24.20;99.90;;;;;;5018157;28;20962;-85
2021/06/17 03:49:27;;;;;;;1999.90;999.90;;;24.20;99.90;;;;;;5018383;28;20940;-85
2021/06/17 03:51:56;;;;;;;1999.90;999.90;;;24.20;99.90;;;;;;5018026;28;20430;-85
2021/06/17 03:54:25;;;;;;;1999.90;999.90;;;24.20;99.90;;;;;;5035874;28;20404;-85
2021/06/17 03:56:59;;;;;;;1999.90;999.90;;;24.20;99.90;;;;;;5035696;28;20425;-85
2021/06/17 03:59:28;;;;;;;1999.90;999.90;;;24.10;99.90;;;;;;5035727;28;20424;-86
2021/06/17 04:01:55;;;;;;;1999.90;999.90;;;24.20;99.90;;;;;;5035738;28;20401;-86
2021/06/17 04:04:21;;;;;;;1999.90;999.90;;;24.10;99.90;;;;;;5017732;28;20452;-86
2021/06/17 04:06:55;;;;;;;1999.90;999.90;;;24.10;99.90;;;;;;5035955;28;20400;-85
2021/06/17 04:09:28;;;;;;;1999.90;999.90;;;24.10;99.90;;;;;;5035609;28;20427;-85
2021/06/17 04:12:03;;;;;;;1999.90;999.90;;;24.10;99.90;;;;;;5001561;28;20405;-86
2021/06/17 04:14:31;;;;;;;1999.90;999.90;;;24.20;99.90;;;;;;5017705;28;20408;-85
2021/06/17 04:16:57;;;;;;;1999.90;999.90;;;24.20;99.90;;;;;;5035646;28;20549;-85
2021/06/17 04:19:26;;;;;;;1999.90;999.90;;;24.20;99.90;;;;;;5017569;28;20433;-86
2021/06/17 04:21:56;;;;;;;1999.90;999.90;;;24.20;99.90;;;;;;5035568;28;20436;-86
2021/06/17 04:24:23;;;;;;;1999.90;999.90;;;24.20;99.90;;;;;;5017515;28;20444;-86
2021/06/17 04:26:53;;;;;;;1999.90;999.90;;;24.10;99.90;;;;;;5035330;28;20417;-86
2021/06/17 04:29:20;;;;;;;1999.90;999.90;;;24.20;99.90;;;;;;5035216;28;20514;-85
2021/06/17 04:31:49;;;;;;;1999.90;999.90;;;24.20;99.90;;;;;;5035161;28;20756;-86
2021/06/17 04:34:16;;;;;;;1999.90;999.90;;;24.10;99.90;;;;;;5035224;28;20408;-86
2021/06/17 04:36:43;;;;;;;1999.90;999.90;;;24.10;99.90;;;;;;5034962;28;20404;-85
2021/06/17 04:39:09;;;;;;;1999.90;999.90;;;24.20;99.90;;;;;;5035010;28;20866;-86
2021/06/17 04:41:37;;;;;;;1999.90;999.90;;;24.30;99.90;;;;;;5035027;28;20668;-86
2021/06/17 04:44:03;;;;;;;1999.90;999.90;;;24.40;99.90;;;;;;5017298;28;20447;-85
2021/06/17 04:46:31;;;;;;;1999.90;999.90;;;24.60;99.90;;;;;;5034850;28;21014;-86
2021/06/17 04:48:58;;;;;;;1999.90;999.90;;;24.80;99.90;;;;;;5034988;28;20943;-85
2021/06/17 04:51:25;;;;;;;1999.90;999.90;;;24.80;99.90;;;;;;5035028;28;20481;-86
2021/06/17 04:53:54;;;;;;;1999.90;999.90;;;25.00;99.90;;;;;;5034649;28;20977;-86
2021/06/17 04:56:20;;;;;;;1999.90;999.90;;;25.10;99.90;;;;;;5016908;28;20410;-86
2021/06/17 04:58:50;;;;;;;1999.90;999.90;;;25.10;99.90;;;;;;5034784;28;20480;-86
2021/06/17 05:01:19;;;;;;;1999.90;999.90;;;25.30;99.90;;;;;;5016738;28;20171;-86
2021/06/17 05:03:46;;;;;;;1999.90;999.90;;;25.30;99.90;;;;;;5034532;28;20956;-87
2021/06/17 05:06:14;;;;;;;1999.90;999.90;;;25.20;99.90;;;;;;5034480;28;20434;-86
2021/06/17 05:11:25;;;;;;;1999.90;999.90;;;25.10;99.90;;;;;;5019558;28;20426;-86
2021/06/17 05:13:54;;;;;;;1999.90;999.90;;;25.10;99.90;;;;;;5016796;28;20935;-87
2021/06/17 05:16:23;;;;;;;1999.90;999.90;;;25.00;99.90;;;;;;5035000;28;20398;-86
2021/06/17 05:18:49;;;;;;;1999.90;999.90;;;25.00;99.90;;;;;;5034357;28;20777;-85
2021/06/17 05:21:14;;;;;;;1999.90;999.90;;;25.00;99.90;;;;;;5034102;28;20438;-87
2021/06/17 05:23:41;;;;;;;1999.90;999.90;;;24.90;99.90;;;;;;5034385;28;20188;-86
2021/06/17 05:26:07;;;;;;;1999.90;999.90;;;24.80;99.90;;;;;;5034247;28;20160;-86
2021/06/17 05:28:33;;;;;;;1999.90;999.90;;;24.80;99.90;;;;;;5016235;28;20924;-86
2021/06/17 05:31:02;;;;;;;1999.90;999.90;;;24.80;99.90;;;;;;5033937;28;20490;-85
2021/06/17 05:33:32;;;;;;;1999.90;999.90;;;24.90;99.90;;;;;;5034155;28;20696;-86
2021/06/17 05:36:01;;;;;;;1999.90;999.90;;;24.90;99.90;;;;;;5017089;28;20504;-85
2021/06/17 05:38:29;;;;;;;1999.90;999.90;;;24.90;99.90;;;;;;5033691;28;20534;-85
2021/06/17 05:40:54;;;;;;;1999.90;999.90;;;24.90;99.90;;;;;;5034791;28;20605;-88
2021/06/17 05:43:22;;;;;;;1999.90;999.90;;;24.90;99.90;;;;;;5017081;28;20940;-87
2021/06/17 05:45:48;;;;;;;1999.90;999.90;;;25.00;99.90;;;;;;5015884;28;20195;-88
2021/06/17 05:48:13;;;;;;;1999.90;999.90;;;25.00;99.90;;;;;;5033394;28;20893;-85
2021/06/17 05:50:40;;;;;;;1999.90;999.90;;;24.90;99.90;;;;;;5033326;28;20408;-85
2021/06/17 05:53:06;;;;;;;1999.90;999.90;;;25.00;99.90;;;;;;5033866;28;20173;-86
2021/06/17 05:55:32;;;;;;;1999.90;999.90;;;25.20;99.90;;;;;;5033465;28;20749;-86
2021/06/17 05:57:58;;;;;;;1999.90;999.90;;;25.30;99.90;;;;;;5033417;28;20407;-86
2021/06/17 06:00:23;;;;;;;1999.90;999.90;;;25.30;99.90;;;;;;5015929;28;20458;-86
2021/06/17 06:02:49;;;;;;;1999.90;999.90;;;25.40;99.90;;;;;;5015510;28;20204;-86
2021/06/17 06:05:15;;;;;;;1999.90;999.90;;;25.50;99.90;;;;;;5033829;28;20505;-86
2021/06/17 06:07:41;;;;;;;1999.90;999.90;;;25.50;99.90;;;;;;5033543;28;20636;-85
2021/06/17 06:10:09;;;;;;;1999.90;999.90;;;25.50;99.90;;;;;;5033140;28;20226;-86
2021/06/17 06:12:35;;;;;;;1999.90;999.90;;;25.50;99.90;;;;;;5033501;28;20403;-85
2021/06/17 06:15:01;;;;;;;1999.90;999.90;;;25.50;99.90;;;;;;5033117;28;20515;-86
2021/06/17 06:17:27;;;;;;;1999.90;999.90;;;25.50;99.90;;;;;;5106952;22;20573;-83
2021/06/17 06:19:52;;;;;;;1999.90;999.90;;;25.60;99.90;;;;;;5057867;28;20184;-83
2021/06/17 06:22:18;;;;;;;1999.90;999.90;;;25.60;99.90;;;;;;5056442;28;20175;-83
2021/06/17 06:24:44;;;;;;;1999.90;999.90;;;25.70;99.90;;;;;;5056784;28;20172;-83
2021/06/17 06:27:09;;;;;;;1999.90;999.90;;;25.80;99.90;;;;;;5058211;28;20164;-83
2021/06/17 06:29:35;;;;;;;1999.90;999.90;;;25.80;99.90;;;;;;5057259;28;20181;-83
2021/06/17 06:32:02;;;;;;;1999.90;999.90;;;25.80;99.90;;;;;;5062105;28;20164;-85
2021/06/17 06:34:28;;;;;;;1999.90;999.90;;;25.80;99.90;;;;;;5061438;28;20406;-86
2021/06/17 06:36:53;;;;;;;1999.90;999.90;;;25.80;99.90;;;;;;5062614;28;20573;-86
2021/06/17 06:39:20;;;;;;;1999.90;999.90;;;25.70;99.90;;;;;;5062755;28;20210;-85
2021/06/17 06:41:51;;;;;;;1999.90;999.90;;;25.70;99.90;;;;;;5060742;28;20183;-85
2021/06/17 06:44:16;;;;;;;1999.90;999.90;;;25.80;99.90;;;;;;5058073;28;20441;-85
2021/06/17 06:47:23;;;;;;;1999.90;999.90;;;25.80;99.90;;;;;;5059528;28;20481;-86
2021/06/17 06:50:24;;;;;;;1999.90;999.90;;;25.90;99.90;;;;;;5059709;28;20544;-86
2021/06/17 06:56:10;;;;;;;1999.90;999.90;;;26.00;99.90;;;;;;5062971;28;20409;-85
2021/06/17 06:58:38;;;;;;;1999.90;999.90;;;26.10;99.90;;;;;;5057858;28;20521;-86
2021/06/17 07:01:07;;;;;;;1999.90;999.90;;;26.10;99.90;;;;;;5059853;28;20410;-87
2021/06/17 07:03:33;;;;;;;1999.90;999.90;;;26.10;99.90;;;;;;5058229;28;20443;-86
2021/06/17 07:06:04;;;;;;;1999.90;999.90;;;26.20;99.90;;;;;;5059688;28;20506;-85
2021/06/17 07:08:38;;;;;;;1999.90;999.90;;;26.20;99.90;;;;;;5059296;28;20184;-83
2021/06/17 07:11:09;;;;;;;1999.90;999.90;;;26.20;99.90;;;;;;5060684;28;20885;-85
2021/06/17 07:13:35;;;;;;;1999.90;999.90;;;26.30;99.90;;;;;;5061464;28;20383;-84
2021/06/17 07:16:00;;;;;;;1999.90;999.90;;;26.30;99.90;;;;;;5061958;28;20406;-86
2021/06/17 07:18:28;;;;;;;1999.90;999.90;;;26.40;99.90;;;;;;5061271;28;20803;-85
2021/06/17 07:20:57;;;;;;;1999.90;999.90;;;26.50;99.90;;;;;;5059528;28;20675;-83
2021/06/17 07:23:27;;;;;;;1999.90;999.90;;;26.60;99.90;;;;;;5057826;28;20474;-85
2021/06/17 07:25:54;;;;;;;1999.90;999.90;;;26.60;99.90;;;;;;5057938;28;20441;-85
2021/06/17 07:28:22;;;;;;;1999.90;999.90;;;26.70;99.90;;;;;;5058730;28;20798;-84
2021/06/17 07:30:51;;;;;;;1999.90;999.90;;;26.80;99.90;;;;;;5057653;28;20414;-84
2021/06/17 07:33:27;;;;;;;1999.90;999.90;;;26.80;99.90;;;;;;5061035;28;20415;-86
2021/06/17 07:35:56;;;;;;;1999.90;999.90;;;26.80;99.90;;;;;;5062064;28;20413;-84
2021/06/17 07:38:25;;;;;;;1999.90;999.90;;;26.90;99.90;;;;;;5063963;28;20460;-84
2021/06/17 07:40:50;;;;;;;1999.90;999.90;;;26.90;99.90;;;;;;5062796;28;20395;-85
2021/06/17 07:43:16;;;;;;;1999.90;999.90;;;27.00;99.90;;;;;;5061403;28;20464;-84
2021/06/17 07:45:42;;;;;;;1999.90;999.90;;;27.00;99.90;;;;;;5059853;28;20411;-85
2021/06/17 07:48:14;;;;;;;1999.90;999.90;;;27.10;99.90;;;;;;5060850;28;20157;-85
2021/06/17 07:50:41;;;;;;;1999.90;999.90;;;27.10;99.90;;;;;;5060755;28;20620;-86
2021/06/17 07:53:08;;;;;;;1999.90;999.90;;;27.20;99.90;;;;;;5061871;28;20418;-86
2021/06/17 07:55:35;;;;;;;1999.90;999.90;;;27.30;99.90;;;;;;5061871;28;20407;-85
2021/06/17 07:58:01;;;;;;;1999.90;999.90;;;27.30;99.90;;;;;;5062906;28;20930;-85
2021/06/17 08:00:32;;;;;;;1999.90;999.90;;;27.40;99.90;;;;;;5061138;28;20438;-84
2021/06/17 08:02:59;;;;;;;1999.90;999.90;;;27.50;99.90;;;;;;5060762;28;20447;-86
2021/06/17 08:05:28;;;;;;;1999.90;999.90;;;27.60;99.90;;;;;;5060801;28;20419;-87
2021/06/17 08:07:54;;;;;;;1999.90;999.90;;;27.60;99.90;;;;;;5061033;28;20430;-83
2021/06/17 08:10:35;;;;;;;1999.90;999.90;;;27.60;99.90;;;;;;5064105;28;20424;-84
2021/06/17 08:13:42;;;;;;;1999.90;999.90;;;27.70;99.90;;;;;;5062610;28;20400;-83
2021/06/17 08:16:28;;;;;;;1999.90;999.90;;;27.80;99.90;;;;;;5065992;28;20468;-86
2021/06/17 08:19:07;;;;;;;1999.90;999.90;;;27.90;99.90;;;;;;5115388;22;20489;-86
2021/06/17 08:25:26;;;;;;;1999.90;999.90;;;28.10;99.90;;;;;;5021881;28;21057;-85
2021/06/17 08:27:56;;;;;;;1999.90;999.90;;;28.10;99.90;;;;;;5060700;28;20403;-85
2021/06/17 08:30:30;;;;;;;1999.90;999.90;;;28.20;99.90;;;;;;5064543;28;20426;-86
2021/06/17 08:33:00;;;;;;;1999.90;999.90;;;28.30;99.90;;;;;;5063841;28;20386;-85
2021/06/17 08:35:26;;;;;;;1999.90;999.90;;;28.40;99.90;;;;;;5064141;28;20398;-87
2021/06/17 08:37:55;;;;;;;1999.90;999.90;;;28.50;99.90;;;;;;5063992;28;20403;-86
2021/06/17 08:40:26;;;;;;;1999.90;999.90;;;28.50;99.90;;;;;;5059576;28;20473;-86
2021/06/17 08:43:00;;;;;;;1999.90;999.90;;;28.60;99.90;;;;;;5060856;28;20474;-87
2021/06/17 08:45:29;;;;;;;1999.90;999.90;;;28.60;99.90;;;;;;5062652;28;20380;-87
2021/06/17 08:48:01;;;;;;;1999.90;999.90;;;28.70;99.90;;;;;;5063009;28;20981;-84
2021/06/17 08:50:37;;;;;;;1999.90;999.90;;;28.70;99.90;;;;;;5062692;28;20425;-85
2021/06/17 08:53:16;;;;;;;1999.90;999.90;;;28.80;99.90;;;;;;5063438;28;20403;-85
2021/06/17 08:55:42;;;;;;;1999.90;999.90;;;28.90;99.90;;;;;;5062093;28;20400;-86
2021/06/17 08:58:08;;;;;;;1999.90;999.90;;;29.00;99.90;;;;;;5060029;28;20417;-83
2021/06/17 09:00:48;;;;;;;1999.90;999.90;;;29.10;99.90;;;;;;5058485;28;20461;-84
2021/06/17 09:03:19;;;;;;;1999.90;999.90;;;29.10;99.90;;;;;;5059323;28;20207;-85
2021/06/17 09:05:52;;;;;;;1999.90;999.90;;;29.10;99.90;;;;;;5058730;28;20430;-86
2021/06/17 09:08:33;;;;;;;1999.90;999.90;;;29.10;99.90;;;;;;5059593;28;20392;-85
2021/06/17 09:11:01;;;;;;;1999.90;999.90;;;29.20;99.90;;;;;;5061098;28;20399;-86
2021/06/17 09:13:44;;;;;;;1999.90;999.90;;;29.30;99.90;;;;;;5060269;28;20399;-86
2021/06/17 09:16:27;;;;;;;1999.90;999.90;;;29.40;99.90;;;;;;5059445;28;20407;-85
2021/06/17 09:18:56;;;;;;;1999.90;999.90;;;29.50;99.90;;;;;;5060493;28;20530;-87
2021/06/17 09:21:22;;;;;;;1999.90;999.90;;;29.60;99.90;;;;;;5058207;28;20446;-85
2021/06/17 09:23:49;;;;;;;1999.90;999.90;;;29.70;99.90;;;;;;5053866;28;20451;-84
2021/06/17 09:26:20;;;;;;;1999.90;999.90;;;29.70;99.90;;;;;;5058497;28;20407;-85
2021/06/17 09:29:04;;;;;;;1999.90;999.90;;;29.80;99.90;;;;;;5058960;28;20430;-85
2021/06/17 09:31:33;;;;;;;1999.90;999.90;;;29.80;99.90;;;;;;5058573;28;20414;-85
2021/06/17 09:34:00;;;;;;;1999.90;999.90;;;29.90;99.90;;;;;;5055402;28;20415;-85
2021/06/17 09:36:33;;;;;;;1999.90;999.90;;;30.00;99.90;;;;;;5057682;28;20798;-85
2021/06/17 09:39:03;;;;;;;1999.90;999.90;;;30.00;99.90;;;;;;5059176;28;20454;-86
2021/06/17 09:41:42;;;;;;;1999.90;999.90;;;30.20;99.90;;;;;;5060057;28;20482;-87
2021/06/17 09:44:49;;;;;;;1999.90;999.90;;;30.30;1.00;;;;;;5059808;28;20427;-86
2021/06/17 09:47:22;;;;;;;1999.90;999.90;;;30.50;99.90;;;;;;4979943;28;20414;-85
2021/06/17 09:49:49;;;;;;;1999.90;999.90;;;30.50;20.00;;;;;;4996164;28;20444;-86
2021/06/17 09:52:18;;;;;;;1999.90;999.90;;;30.70;24.80;;;;;;5058787;28;20446;-86
2021/06/17 09:54:45;;;;;;;1999.90;999.90;;;30.70;27.40;;;;;;5058629;28;20429;-86
2021/06/17 09:57:20;;;;;;;1999.90;999.90;;;31.00;27.00;;;;;;5060252;28;20399;-87
2021/06/17 09:59:51;;;;;;;1999.90;999.90;;;31.10;27.10;;;;;;5055637;28;20419;-85
2021/06/17 10:02:39;;;;;;;1999.90;999.90;;;31.30;23.70;;;;;;5054438;28;20402;-86
2021/06/17 10:05:19;;;;;;;1999.90;999.90;;;31.30;23.40;;;;;;5055158;28;20871;-87
2021/06/17 10:07:50;;;;;;;1999.90;999.90;;;31.40;19.60;;;;;;5054070;28;20922;-86
2021/06/17 10:10:22;;;;;;;1999.90;999.90;;;31.60;24.60;;;;;;5053393;28;20810;-86
2021/06/17 10:13:04;;;;;;;1999.90;999.90;;;31.90;20.70;;;;;;5054730;28;20453;-86
2021/06/17 10:15:39;;;;;;;1999.90;999.90;;;31.90;15.40;;;;;;5053592;28;20434;-86
2021/06/17 10:18:08;;;;;;;1999.90;999.90;;;32.00;13.30;;;;;;5053878;28;20410;-86
2021/06/17 10:20:35;;;;;;;1999.90;999.90;;;32.10;15.30;;;;;;5056881;28;20505;-87
2021/06/17 10:23:16;;;;;;;1999.90;999.90;;;32.30;13.40;;;;;;5057452;28;20447;-85
2021/06/17 10:25:46;;;;;;;1999.90;999.90;;;32.40;10.50;;;;;;5057292;28;20411;-85
2021/06/17 10:28:47;;;;;;;1999.90;999.90;;;32.30;10.20;;;;;;5057713;28;20434;-86
2021/06/17 10:31:33;;;;;;;1999.90;999.90;;;32.40;10.60;;;;;;5054461;28;20439;-86
2021/06/17 10:34:25;;;;;;;1999.90;999.90;;;32.70;10.50;;;;;;5058754;28;20433;-87
2021/06/17 10:37:10;;;;;;;1999.90;999.90;;;32.70;7.30;;;;;;5065631;28;20402;-87
2021/06/17 10:39:42;;;;;;;1999.90;999.90;;;32.90;7.30;;;;;;5064504;28;20521;-85
2021/06/17 10:43:09;;;;;;;1999.90;999.90;;;33.10;5.10;;;;;;5064068;28;20395;-85
2021/06/17 10:45:41;;;;;;;1999.90;999.90;;;32.90;5.10;;;;;;5055523;28;20414;-86
2021/06/17 10:48:21;;;;;;;1999.90;999.90;;;33.00;5.40;;;;;;5065163;28;20403;-86
2021/06/17 10:51:07;;;;;;;1999.90;999.90;;;33.10;4.70;;;;;;5066959;28;20379;-87
2021/06/17 10:53:54;;;;;;;1999.90;999.90;;;33.10;1.80;;;;;;5066940;28;20473;-87
2021/06/17 10:56:41;;;;;;;1999.90;999.90;;;33.40;2.60;;;;;;5066274;28;20375;-85
2021/06/17 10:59:16;;;;;;;1999.90;999.90;;;33.60;1.30;;;;;;5067198;28;20914;-85
2021/06/17 11:01:45;;;;;;;1999.90;999.90;;;33.80;1.00;;;;;;5064685;28;20898;-85
2021/06/17 11:04:33;;;;;;;1999.90;999.90;;;33.80;1.00;;;;;;5064179;28;20454;-85
2021/06/17 11:07:13;;;;;;;1999.90;999.90;;;33.70;1.00;;;;;;5065589;28;20407;-85
2021/06/17 11:09:45;;;;;;;1999.90;999.90;;;33.80;1.00;;;;;;5063481;28;20427;-87
2021/06/17 11:12:20;;;;;;;1999.90;999.90;;;33.80;1.00;;;;;;5065958;28;20426;-87
2021/06/17 11:14:48;;;;;;;1999.90;999.90;;;34.10;1.00;;;;;;5063629;28;20413;-87
2021/06/17 11:17:26;;;;;;;1999.90;999.90;;;34.20;1.00;;;;;;5065818;28;20736;-87
2021/06/17 11:20:18;;;;;;;1999.90;999.90;;;34.40;1.00;;;;;;5065592;28;20451;-86
2021/06/17 11:22:49;;;;;;;1999.90;999.90;;;34.50;1.00;;;;;;5064729;28;20449;-87
2021/06/17 11:25:18;;;;;;;1999.90;999.90;;;34.00;1.00;;;;;;5063189;28;20376;-87
2021/06/17 11:28:11;;;;;;;1999.90;999.90;;;34.20;1.00;;;;;;5062356;28;20395;-86
2021/06/17 11:30:41;;;;;;;1999.90;999.90;;;34.50;1.00;;;;;;5063369;28;20468;-87
2021/06/17 11:33:15;;;;;;;1999.90;999.90;;;34.80;1.00;;;;;;5062073;28;20465;-87
2021/06/17 11:35:43;;;;;;;1999.90;999.90;;;34.80;1.00;;;;;;5063233;28;20413;-86
2021/06/17 11:38:09;;;;;;;1999.90;999.90;;;35.00;1.00;;;;;;5062553;28;20403;-86
2021/06/17 11:40:46;;;;;;;1999.90;999.90;;;35.10;1.00;;;;;;5064937;28;20461;-86
2021/06/17 11:43:29;;;;;;;1999.90;999.90;;;35.30;1.00;;;;;;5062268;28;20878;-87
2021/06/17 11:46:26;;;;;;;1999.90;999.90;;;35.40;1.00;;;;;;5062557;28;20407;-86
2021/06/17 11:49:05;;;;;;;1999.90;999.90;;;35.30;1.00;;;;;;5060525;28;20427;-87
2021/06/17 11:51:46;;;;;;;1999.90;999.90;;;35.40;1.00;;;;;;5058805;28;20403;-86
2021/06/17 11:54:24;;;;;;;1999.90;999.90;;;35.60;1.00;;;;;;5062013;28;20867;-87
2021/06/17 11:56:52;;;;;;;1999.90;999.90;;;35.90;1.00;;;;;;5060973;28;20379;-87
2021/06/17 11:59:27;;;;;;;1999.90;999.90;;;36.00;1.00;;;;;;5059712;28;20542;-87
2021/06/17 12:02:23;;;;;;;1999.90;999.90;;;36.00;1.00;;;;;;5059935;28;20406;-87
2021/06/17 12:05:06;;;;;;;1999.90;999.90;;;35.80;1.00;;;;;;5061483;28;20405;-87
2021/06/17 12:08:05;;;;;;;1999.90;999.90;;;35.50;1.00;;;;;;5059997;28;20765;-87
2021/06/17 12:10:35;;;;;;;1999.90;999.90;;;35.70;1.00;;;;;;5014691;28;20772;-87
2021/06/17 12:13:03;;;;;;;1999.90;999.90;;;35.80;1.00;;;;;;5056658;28;20392;-87
2021/06/17 12:15:44;;;;;;;1999.90;999.90;;;35.80;1.00;;;;;;5057200;28;20407;-87
2021/06/17 12:18:12;;;;;;;1999.90;999.90;;;35.50;1.00;;;;;;5123883;22;21042;-82
2021/06/17 12:20:46;;;;;;;1999.90;999.90;;;35.50;1.00;;;;;;5064346;28;20423;-82
2021/06/17 12:23:23;;;;;;;1999.90;999.90;;;35.40;1.00;;;;;;5066272;28;20443;-83
2021/06/17 12:26:02;;;;;;;1999.90;999.90;;;35.60;1.00;;;;;;5065215;28;20794;-82
2021/06/17 12:28:28;;;;;;;1999.90;999.90;;;35.50;1.00;;;;;;5063901;28;20462;-82
2021/06/17 12:30:59;;;;;;;1999.90;999.90;;;35.60;1.00;;;;;;5062567;28;20419;-82
2021/06/17 12:33:31;;;;;;;1999.90;999.90;;;35.80;1.00;;;;;;5065284;28;20376;-82